Hitachimaru — JD2063 — position and weather

sailwx.info

Track history (hours):
 
Tides and Currents Weather Stations Pressure Air Temp Water Temp Dewpoint Dewpoint Depression Visibility Wind Speed Wind Dir Waves Ship Positions

Hitachimaru

Last reported at 2015-Jan-25 23:27 UTC. Time now 2015-Jan-26 04:27 UTC.
Position N 34°35' E 135°28'.

Length 83 m; draft 4.5 m.

Type: Cargo ship. MMSI: 431301756.

Date/timePositionNaut miles runAvg speedWind from/ knotsBaromVisibWave heightAir tempDewpointWater temp
2015-Jan-25 23:27N 34°35' E 135°28'8 9.3
2015-Jan-25 22:33N 34°36' E 135°18'1313.3
2015-Jan-25 21:34N 34°37' E 135°02'1714.2
2015-Jan-25 20:21N 34°40' E 134°41'11 0.6
2015-Jan-25 03:09N 34°37' E 134°54'914.5
2015-Jan-25 02:33N 34°36' E 135°04'1212.4
2015-Jan-25 01:33N 34°24' E 135°02'1312.9
2015-Jan-25 00:33N 34°11' E 135°00'211 9.5
2015-Jan-24 02:16N 34°48' E 139°12'2112.4
2015-Jan-24 00:33N 35°01' E 139°33'1212.2
2015-Jan-23 23:34N 35°09' E 139°44'1110.9
2015-Jan-23 22:33N 35°20' E 139°43'6 6.2
2015-Jan-23 21:33N 35°22' E 139°49'2 1.5
2015-Jan-23 20:31N 35°22' E 139°51'0 0.0
2015-Jan-23 19:31N 35°22' E 139°51'0 0.0
2015-Jan-23 18:28N 35°22' E 139°51'0 0.0
2015-Jan-23 17:31N 35°22' E 139°51'0 0.0
2015-Jan-23 16:33N 35°22' E 139°51'0 0.0
2015-Jan-23 15:18N 35°22' E 139°51'0 0.0
2015-Jan-23 14:33N 35°22' E 139°51'0 0.0
2015-Jan-23 13:30N 35°22' E 139°51'0 0.0
2015-Jan-23 12:33N 35°22' E 139°51'0 0.0
2015-Jan-23 11:33N 35°22' E 139°51'0 0.0
2015-Jan-23 10:33N 35°22' E 139°51'0 0.0
2015-Jan-23 09:33N 35°22' E 139°51'0 0.0
2015-Jan-23 08:33N 35°22' E 139°51'0 0.0
2015-Jan-23 07:30N 35°22' E 139°51'0 0.0
2015-Jan-23 06:30N 35°22' E 139°51'0 0.0
2015-Jan-23 05:30N 35°22' E 139°51'0 0.0
2015-Jan-23 04:30N 35°22' E 139°51'5 4.7
2015-Jan-23 03:33N 35°26' E 139°50'1512.3
2015-Jan-23 02:17N 35°40' E 139°57'3 0.1
2015-Jan-21 23:30N 35°37' E 139°58'8 0.3
2015-Jan-20 22:33N 35°30' E 139°53'1111.3
2015-Jan-20 21:33N 35°21' E 139°45'1110.8
2015-Jan-20 20:33N 35°10' E 139°46'1111.1
2015-Jan-20 19:33N 35°01' E 139°38'23710.2
2015-Jan-19 20:16N 33°59' E 135°01'811.8
2015-Jan-19 19:33N 34°07' E 134°60'1312.5
2015-Jan-19 18:31N 34°20' E 134°60'1212.4
2015-Jan-19 17:32N 34°28' E 135°11'1212.3
2015-Jan-19 16:33N 34°36' E 135°22'5 0.9
2015-Jan-19 11:14N 34°34' E 135°27'0 0.0
2015-Jan-19 09:26N 34°34' E 135°27'2 1.7
2015-Jan-19 08:33N 34°35' E 135°28'0 0.0
2015-Jan-19 07:17N 34°35' E 135°28'0 0.0
2015-Jan-19 04:11N 34°35' E 135°28'2 0.3
2015-Jan-18 23:26N 34°34' E 135°27'0 0.0
2015-Jan-18 22:08N 34°34' E 135°27'0 0.0
2015-Jan-18 21:20N 34°34' E 135°27'0 0.0
2015-Jan-18 16:26N 34°34' E 135°27'0 0.0
2015-Jan-18 10:32N 34°34' E 135°27'1 0.1
2015-Jan-17 20:33N 34°35' E 135°27'1212.1
2015-Jan-17 19:33N 34°35' E 135°13'1212.1
2015-Jan-17 18:33N 34°37' E 134°58'1512.8
2015-Jan-17 17:22N 34°41' E 134°40'13 1.1
2015-Jan-17 05:34N 34°37' E 134°55'9 9.1
2015-Jan-17 04:34N 34°34' E 135°05'1111.1
2015-Jan-17 03:33N 34°23' E 135°02'1110.6
2015-Jan-17 02:33N 34°12' E 134°59'226 9.0
2015-Jan-16 01:32N 34°58' E 139°28'1111.6
2015-Jan-16 00:33N 35°05' E 139°39'1211.7
2015-Jan-15 23:33N 35°15' E 139°46'  
Track history (hours):
 
Tides and Currents Weather Stations Pressure Air Temp Water Temp Dewpoint Dewpoint Depression Visibility Wind Speed Wind Dir Waves Ship Positions

Hitachimaru

Last reported at 2015-Jan-25 23:27 UTC. Time now 2015-Jan-26 04:27 UTC.
Position N 34°35' E 135°28'.

Length 83 m; draft 4.5 m.

Type: Cargo ship. MMSI: 431301756.

Date/timePositionNaut miles runAvg speedWind from/ knotsBaromVisibWave heightAir tempDewpointWater temp
2015-Jan-25 23:27N 34°35' E 135°28'8 9.3
2015-Jan-25 22:33N 34°36' E 135°18'1313.3
2015-Jan-25 21:34N 34°37' E 135°02'1714.2
2015-Jan-25 20:21N 34°40' E 134°41'11 0.6
2015-Jan-25 03:09N 34°37' E 134°54'914.5
2015-Jan-25 02:33N 34°36' E 135°04'1212.4
2015-Jan-25 01:33N 34°24' E 135°02'1312.9
2015-Jan-25 00:33N 34°11' E 135°00'211 9.5
2015-Jan-24 02:16N 34°48' E 139°12'2112.4
2015-Jan-24 00:33N 35°01' E 139°33'1212.2
2015-Jan-23 23:34N 35°09' E 139°44'1110.9
2015-Jan-23 22:33N 35°20' E 139°43'6 6.2
2015-Jan-23 21:33N 35°22' E 139°49'2 1.5
2015-Jan-23 20:31N 35°22' E 139°51'0 0.0
2015-Jan-23 19:31N 35°22' E 139°51'0 0.0
2015-Jan-23 18:28N 35°22' E 139°51'0 0.0
2015-Jan-23 17:31N 35°22' E 139°51'0 0.0
2015-Jan-23 16:33N 35°22' E 139°51'0 0.0
2015-Jan-23 15:18N 35°22' E 139°51'0 0.0
2015-Jan-23 14:33N 35°22' E 139°51'0 0.0
2015-Jan-23 13:30N 35°22' E 139°51'0 0.0
2015-Jan-23 12:33N 35°22' E 139°51'0 0.0
2015-Jan-23 11:33N 35°22' E 139°51'0 0.0
2015-Jan-23 10:33N 35°22' E 139°51'0 0.0
2015-Jan-23 09:33N 35°22' E 139°51'0 0.0
2015-Jan-23 08:33N 35°22' E 139°51'0 0.0
2015-Jan-23 07:30N 35°22' E 139°51'0 0.0
2015-Jan-23 06:30N 35°22' E 139°51'0 0.0
2015-Jan-23 05:30N 35°22' E 139°51'0 0.0
2015-Jan-23 04:30N 35°22' E 139°51'5 4.7
2015-Jan-23 03:33N 35°26' E 139°50'1512.3
2015-Jan-23 02:17N 35°40' E 139°57'3 0.1
2015-Jan-21 23:30N 35°37' E 139°58'8 0.3
2015-Jan-20 22:33N 35°30' E 139°53'1111.3
2015-Jan-20 21:33N 35°21' E 139°45'1110.8
2015-Jan-20 20:33N 35°10' E 139°46'1111.1
2015-Jan-20 19:33N 35°01' E 139°38'23710.2
2015-Jan-19 20:16N 33°59' E 135°01'811.8
2015-Jan-19 19:33N 34°07' E 134°60'1312.5
2015-Jan-19 18:31N 34°20' E 134°60'1212.4
2015-Jan-19 17:32N 34°28' E 135°11'1212.3
2015-Jan-19 16:33N 34°36' E 135°22'5 0.9
2015-Jan-19 11:14N 34°34' E 135°27'0 0.0
2015-Jan-19 09:26N 34°34' E 135°27'2 1.7
2015-Jan-19 08:33N 34°35' E 135°28'0 0.0
2015-Jan-19 07:17N 34°35' E 135°28'0 0.0
2015-Jan-19 04:11N 34°35' E 135°28'2 0.3
2015-Jan-18 23:26N 34°34' E 135°27'0 0.0
2015-Jan-18 22:08N 34°34' E 135°27'0 0.0
2015-Jan-18 21:20N 34°34' E 135°27'0 0.0
2015-Jan-18 16:26N 34°34' E 135°27'0 0.0
2015-Jan-18 10:32N 34°34' E 135°27'1 0.1
2015-Jan-17 20:33N 34°35' E 135°27'1212.1
2015-Jan-17 19:33N 34°35' E 135°13'1212.1
2015-Jan-17 18:33N 34°37' E 134°58'1512.8
2015-Jan-17 17:22N 34°41' E 134°40'13 1.1
2015-Jan-17 05:34N 34°37' E 134°55'9 9.1
2015-Jan-17 04:34N 34°34' E 135°05'1111.1
2015-Jan-17 03:33N 34°23' E 135°02'1110.6
2015-Jan-17 02:33N 34°12' E 134°59'226 9.0
2015-Jan-16 01:32N 34°58' E 139°28'1111.6
2015-Jan-16 00:33N 35°05' E 139°39'1211.7
2015-Jan-15 23:33N 35°15' E 139°46'  

Dump ship's entire track history